Terminal Aerodrome Forecast
Issued by NWS Tulsa, OK

Home | Current Version | Previous Version | Text Only | Print | Product List | Glossary On
Versions: 1 2 3 4 5 6 7 8 9 10 11 12 13 14 15 16
000
FTUS44 KTSA 201120
TAFTUL
TAF
KTUL 201120Z 2012/2112 18009KT P6SM FEW250
     FM201600 20016G24KT P6SM SCT250
     FM210000 18012KT P6SM SCT250=

USA.gov is the U.S. government's official web portal to all federal, state and local government web resources and services.